Latest Weather Observations for Flinders Reef

IDQ60801

Issued at 8:01 pm EST Wednesday 5 August 2015 (issued every 30 minutes, with the page automatically refreshed every 10 minutes)

About weather observations | Map of weather stations | Latest weather observations for QLD | Other Formats
Station Details ID: 200783 Name: FLINDERS REEF Lat: -17.72 Lon: 148.45 Height: 2.6 m
Data from the previous 72 hours. | See also: Recent months at Flinders Reef
Date/Time
EST
Temp
°C
App
Temp
°C
Dew
Point
Rel
Hum
%
Delta-T
°C
Wind Press
QNH
hPa
Press
MSL
hPa
Rain
since 9 am
mm
Dir
 
Spd
km/h
Gust
km/h
Spd
kts
Gust
kts
05/08:00pm - - - - - SE 30 35 16 19 1016.6 - -
05/07:30pm - - - - - SE 33 37 18 20 1016.3 - -
05/07:24pm - - - - - SE 33 - 18 - - 1016.2 -
05/07:00pm - - - - - SE 33 41 18 22 1016.1 - -
05/06:30pm - - - - - SE 35 39 19 21 1015.6 - -
05/06:24pm - - - - - SE 35 - 19 - - 1015.4 -
05/06:00pm - - - - - SSE 35 43 19 23 1015.3 - -
05/05:30pm - - - - - SSE 35 41 19 22 1015.2 - -
05/05:24pm - - - - - SSE 35 - 19 - - 1015.0 -
05/05:00pm - - - - - SSE 39 44 21 24 1014.8 - -
05/04:30pm - - - - - SSE 39 43 21 23 1014.7 - -
05/04:24pm - - - - - SSE 37 - 20 - - 1014.6 -
05/04:00pm - - - - - SSE 39 44 21 24 1014.4 - -
05/03:30pm - - - - - SSE 37 44 20 24 1014.4 - -
05/03:24pm - - - - - SSE 37 - 20 - - 1014.3 -
05/03:00pm - - - - - SSE 39 48 21 26 1014.4 - -
05/02:30pm - - - - - SSE 39 46 21 25 1014.4 - -
05/02:24pm - - - - - SSE 39 - 21 - - 1014.4 -
05/02:00pm - - - - - SSE 43 48 23 26 1014.7 - -
05/01:30pm - - - - - SSE 43 48 23 26 1015.2 - -
05/01:24pm - - - - - SSE 43 - 23 - - 1015.2 -
05/01:00pm - - - - - SSE 43 46 23 25 1015.4 - -
05/12:30pm - - - - - SSE 32 43 17 23 1015.7 - -
05/12:24pm - - - - - SSE 30 - 16 - - 1015.7 -
05/12:00pm - - - - - SSE 33 37 18 20 1016.1 - -
05/11:30am - - - - - SSE 33 37 18 20 1016.4 - -
05/11:24am - - - - - SSE 33 - 18 - - 1016.3 -
05/11:00am - - - - - SSE 32 35 17 19 1016.6 - -
05/10:30am - - - - - SSE 32 35 17 19 1016.8 - -
05/10:24am - - - - - SSE 32 - 17 - - 1016.8 -
05/10:00am - - - - - SSE 32 37 17 20 1017.0 - -
05/09:30am - - - - - E 24 30 13 16 1017.1 - -
05/09:24am - - - - - E 26 - 14 - - 1016.9 -
05/09:00am - - - - - SE 22 30 12 16 1016.7 - -
05/08:30am - - - - - SE 22 26 12 14 1016.4 - -
05/08:24am - - - - - SE 24 - 13 - - 1016.3 -
05/08:00am - - - - - SE 26 30 14 16 1016.1 - -
05/07:30am - - - - - SE 24 28 13 15 1015.8 - -
05/07:24am - - - - - SE 24 - 13 - - 1015.7 -
05/07:00am - - - - - ESE 22 26 12 14 1015.6 - -
05/06:30am - - - - - ESE 20 24 11 13 1015.4 - -
05/06:24am - - - - - ESE 20 - 11 - - 1015.3 -
05/06:00am - - - - - ESE 24 26 13 14 1015.0 - -
05/05:30am - - - - - ESE 24 28 13 15 1014.8 - -
05/05:24am - - - - - ESE 24 - 13 - - 1014.6 -
05/05:00am - - - - - ESE 24 28 13 15 1014.6 - -
05/04:30am - - - - - ESE 24 28 13 15 1014.4 - -
05/04:24am - - - - - ESE 24 - 13 - - 1014.4 -
05/04:00am - - - - - ESE 24 28 13 15 1014.4 - -
05/03:30am - - - - - ESE 22 26 12 14 1014.5 - -
05/03:24am - - - - - ESE 22 - 12 - - 1014.4 -
05/03:00am - - - - - E 24 30 13 16 1014.5 - -
05/02:30am - - - - - ESE 26 30 14 16 1014.5 - -
05/02:24am - - - - - ESE 24 - 13 - - 1014.5 -
05/02:00am - - - - - ESE 24 30 13 16 1014.8 - -
05/01:30am - - - - - ESE 26 30 14 16 1015.1 - -
05/01:24am - - - - - E 26 - 14 - - 1015.1 -
05/01:00am - - - - - ESE 24 28 13 15 1015.1 - -
05/12:30am - - - - - E 24 30 13 16 1015.1 - -
05/12:24am - - - - - E 24 - 13 - - 1014.9 -
05/12:00am - - - - - E 24 28 13 15 1015.1 - -
 
Date/Time
EST
Temp
°C
App
Temp
°C
Dew
Point
Rel
Hum
%
Delta-T
°C
Wind Press
QNH
hPa
Press
MSL
hPa
Rain
since 9 am
mm
Dir
 
Spd
km/h
Gust
km/h
Spd
kts
Gust
kts
04/11:30pm - - - - - E 22 26 12 14 1015.3 - -
04/11:24pm - - - - - E 22 - 12 - - 1015.2 -
04/11:00pm - - - - - ESE 22 28 12 15 1015.2 - -
04/10:30pm - - - - - E 22 26 12 14 1015.4 - -
04/10:24pm - - - - - E 22 - 12 - - 1015.4 -
04/10:00pm - - - - - E 22 26 12 14 1015.6 - -
04/09:30pm - - - - - ESE 24 26 13 14 1015.7 - -
04/09:24pm - - - - - ESE 24 - 13 - - 1015.6 -
04/09:00pm - - - - - ESE 24 28 13 15 1015.6 - -
04/08:30pm - - - - - ESE 24 28 13 15 1015.6 - -
04/08:24pm - - - - - ESE 24 - 13 - - 1015.5 -
04/08:00pm - - - - - ESE 26 28 14 15 1015.4 - -
04/07:30pm - - - - - ESE 26 32 14 17 1015.2 - -
04/07:24pm - - - - - SE 26 - 14 - - 1015.1 -
04/07:00pm - - - - - SE 28 32 15 17 1015.0 - -
04/06:30pm - - - - - SE 28 33 15 18 1014.8 - -
04/06:24pm - - - - - SE 28 - 15 - - 1014.6 -
04/06:00pm - - - - - SSE 28 32 15 17 1014.5 - -
04/05:30pm - - - - - SSE 26 30 14 16 1014.5 - -
04/05:24pm - - - - - SSE 28 - 15 - - 1014.3 -
04/05:00pm - - - - - SSE 28 32 15 17 1014.3 - -
04/04:30pm - - - - - SSE 28 33 15 18 1014.0 - -
04/04:24pm - - - - - S 28 - 15 - - 1013.9 -
04/04:00pm - - - - - S 32 35 17 19 1014.0 - -
04/03:30pm - - - - - SSE 28 33 15 18 1014.0 - -
04/03:24pm - - - - - S 28 - 15 - - 1013.9 -
04/03:00pm - - - - - S 28 32 15 17 1014.1 - -
04/02:30pm - - - - - S 26 30 14 16 1014.5 - -
04/02:24pm - - - - - S 26 - 14 - - 1014.4 -
04/02:00pm - - - - - S 24 28 13 15 1014.9 - -
04/01:30pm - - - - - S 22 28 12 15 1015.2 - -
04/01:24pm - - - - - S 22 - 12 - - 1015.1 -
04/01:00pm - - - - - S 20 24 11 13 1015.4 - -
04/12:30pm - - - - - S 20 24 11 13 1016.0 - -
04/12:24pm - - - - - SSE 20 - 11 - - 1015.9 -
04/12:00pm - - - - - SSE 19 20 10 11 1016.4 - -
04/11:30am - - - - - SSE 17 20 9 11 1016.6 - -
04/11:24am - - - - - SE 19 - 10 - - 1016.6 -
04/11:00am - - - - - SE 15 17 8 9 1016.8 - -
04/10:30am - - - - - ESE 17 20 9 11 1016.9 - -
04/10:24am - - - - - ESE 17 - 9 - - 1016.9 -
04/10:00am - - - - - ESE 19 20 10 11 1017.1 - -
04/09:30am - - - - - ESE 19 22 10 12 1017.1 - -
04/09:24am - - - - - ESE 19 - 10 - - 1017.0 -
04/09:00am - - - - - ESE 19 22 10 12 1017.1 - -
04/08:30am - - - - - ESE 19 20 10 11 1016.9 - -
04/08:24am - - - - - ESE 19 - 10 - - 1016.7 -
04/08:00am - - - - - ESE 19 20 10 11 1016.6 - -
04/07:30am - - - - - ESE 17 20 9 11 1016.2 - -
04/07:24am - - - - - ESE 19 - 10 - - 1016.1 -
04/07:00am - - - - - E 17 20 9 11 1016.0 - -
04/06:30am - - - - - E 17 20 9 11 1015.6 - -
04/06:24am - - - - - E 17 - 9 - - 1015.4 -
04/06:00am - - - - - E 17 19 9 10 1015.3 - -
04/05:30am - - - - - E 17 20 9 11 1015.1 - -
04/05:24am - - - - - E 17 - 9 - - 1015.0 -
04/05:00am - - - - - E 17 19 9 10 1015.0 - -
04/04:30am - - - - - E 17 19 9 10 1015.1 - -
04/04:24am - - - - - E 17 - 9 - - 1014.9 -
04/04:00am - - - - - E 19 20 10 11 1015.1 - -
04/03:30am - - - - - E 19 20 10 11 1015.3 - -
04/03:24am - - - - - E 17 - 9 - - 1015.2 -
04/03:00am - - - - - E 17 20 9 11 1015.4 - -
04/02:30am - - - - - E 20 22 11 12 1015.5 - -
04/02:24am - - - - - E 20 - 11 - - 1015.4 -
04/02:00am - - - - - ESE 22 24 12 13 1015.6 - -
04/01:30am - - - - - ESE 26 28 14 15 1016.0 - -
04/01:24am - - - - - SE 26 - 14 - - 1016.0 -
04/01:00am - - - - - SE 26 30 14 16 1016.3 - -
04/12:30am - - - - - SE 28 32 15 17 1016.6 - -
04/12:24am - - - - - SE 28 - 15 - - 1016.5 -
04/12:00am - - - - - SE 28 32 15 17 1016.7 - -
 
Date/Time
EST
Temp
°C
App
Temp
°C
Dew
Point
Rel
Hum
%
Delta-T
°C
Wind Press
QNH
hPa
Press
MSL
hPa
Rain
since 9 am
mm
Dir
 
Spd
km/h
Gust
km/h
Spd
kts
Gust
kts
03/11:30pm - - - - - SE 28 33 15 18 1017.0 - -
03/11:24pm - - - - - SE 28 - 15 - - 1016.9 -
03/11:00pm - - - - - SE 28 32 15 17 1017.2 - -
03/10:30pm - - - - - SE 26 30 14 16 1017.3 - -
03/10:24pm - - - - - SE 26 - 14 - - 1017.2 -
03/10:00pm - - - - - SE 28 33 15 18 1017.2 - -
03/09:30pm - - - - - SE 26 30 14 16 1017.2 - -
03/09:24pm - - - - - SE 26 - 14 - - 1017.0 -
03/09:00pm - - - - - SE 26 32 14 17 1017.2 - -
03/08:30pm - - - - - SE 24 28 13 15 1017.3 - -
03/08:24pm - - - - - SE 24 - 13 - - 1017.2 -
03/08:00pm - - - - - ESE 20 24 11 13 1017.3 - -
03/07:30pm - - - - - SE 19 22 10 12 1017.1 - -
03/07:24pm - - - - - SE 19 - 10 - - 1017.0 -
03/07:00pm - - - - - SE 19 24 10 13 1016.9 - -
03/06:30pm - - - - - SE 19 20 10 11 1016.6 - -
03/06:24pm - - - - - SE 19 - 10 - - 1016.5 -
03/06:00pm - - - - - SE 20 24 11 13 1016.6 - -
03/05:30pm - - - - - SE 22 26 12 14 1016.4 - -
03/05:24pm - - - - - SE 22 - 12 - - 1016.4 -
03/05:00pm - - - - - SE 22 26 12 14 1016.3 - -
03/04:30pm - - - - - SSE 20 24 11 13 1016.1 - -
03/04:24pm - - - - - SSE 20 - 11 - - 1016.0 -
03/04:00pm - - - - - SSE 20 24 11 13 1016.0 - -
03/03:30pm - - - - - SE 20 24 11 13 1016.1 - -
03/03:24pm - - - - - SE 19 - 10 - - 1016.0 -
03/03:00pm - - - - - SE 20 24 11 13 1016.1 - -
03/02:30pm - - - - - SE 19 20 10 11 1016.3 - -
03/02:24pm - - - - - SE 19 - 10 - - 1016.2 -
03/02:00pm - - - - - SE 17 19 9 10 1016.3 - -
03/01:30pm - - - - - ESE 17 20 9 11 1016.6 - -
03/01:24pm - - - - - ESE 17 - 9 - - 1016.6 -
03/01:00pm - - - - - ESE 17 20 9 11 1016.9 - -
03/12:30pm - - - - - SE 17 20 9 11 1017.4 - -
03/12:24pm - - - - - SE 19 - 10 - - 1017.4 -
03/12:00pm - - - - - ESE 17 19 9 10 1017.9 - -
03/11:30am - - - - - ESE 19 20 10 11 1018.3 - -
03/11:24am - - - - - E 20 - 11 - - 1018.3 -
03/11:00am - - - - - ESE 20 24 11 13 1018.7 - -
03/10:30am - - - - - ESE 22 26 12 14 1019.1 - -
03/10:24am - - - - - ESE 24 - 13 - - 1019.1 -
03/10:00am - - - - - ESE 22 26 12 14 1019.4 - -
03/09:30am - - - - - ESE 26 30 14 16 1019.2 - -
03/09:24am - - - - - ESE 26 - 14 - - 1019.1 -
03/09:00am - - - - - ESE 28 33 15 18 1019.1 - -
03/08:30am - - - - - ESE 28 32 15 17 1018.7 - -
03/08:24am - - - - - ESE 30 - 16 - - 1018.6 -
03/08:00am - - - - - ESE 28 32 15 17 1018.3 - -
03/07:30am - - - - - ESE 30 33 16 18 1018.1 - -
03/07:24am - - - - - ESE 30 - 16 - - 1017.9 -
03/07:00am - - - - - ESE 30 35 16 19 1017.9 - -
03/06:30am - - - - - SE 30 37 16 20 1017.7 - -
03/06:24am - - - - - ESE 30 - 16 - - 1017.5 -
03/06:00am - - - - - ESE 30 33 16 18 1017.4 - -
03/05:30am - - - - - ESE 30 33 16 18 1017.4 - -
03/05:24am - - - - - ESE 30 - 16 - - 1017.3 -
03/05:00am - - - - - ESE 30 32 16 17 1017.2 - -
03/04:30am - - - - - ESE 28 32 15 17 1017.1 - -
03/04:24am - - - - - ESE 28 - 15 - - 1017.0 -
03/04:00am - - - - - ESE 30 33 16 18 1017.1 - -
03/03:30am - - - - - SE 30 35 16 19 1017.0 - -
03/03:24am - - - - - SE 30 - 16 - - 1017.0 -
03/03:00am - - - - - SE 30 35 16 19 1017.4 - -
03/02:30am - - - - - ESE 28 33 15 18 1017.5 - -
03/02:24am - - - - - ESE 28 - 15 - - 1017.4 -
03/02:00am - - - - - ESE 28 32 15 17 1017.8 - -
03/01:30am - - - - - ESE 26 30 14 16 1018.3 - -
03/01:24am - - - - - ESE 24 - 13 - - 1018.2 -
03/01:00am - - - - - ESE 26 30 14 16 1018.6 - -
03/12:30am - - - - - ESE 28 30 15 16 1018.6 - -
03/12:24am - - - - - SE 28 - 15 - - 1018.5 -
03/12:00am - - - - - ESE 28 32 15 17 1018.9 - -
 
Date/Time
EST
Temp
°C
App
Temp
°C
Dew
Point
Rel
Hum
%
Delta-T
°C
Wind Press
QNH
hPa
Press
MSL
hPa
Rain
since 9 am
mm
Dir
 
Spd
km/h
Gust
km/h
Spd
kts
Gust
kts
02/11:30pm - - - - - ESE 28 33 15 18 1019.1 - -
02/11:24pm - - - - - ESE 28 - 15 - - 1019.0 -
02/11:00pm - - - - - ESE 26 30 14 16 1019.3 - -
02/10:30pm - - - - - ESE 26 32 14 17 1019.3 - -
02/10:24pm - - - - - ESE 28 - 15 - - 1019.2 -
02/10:00pm - - - - - ESE 26 32 14 17 1019.2 - -
02/09:30pm - - - - - SE 28 32 15 17 1019.2 - -
02/09:24pm - - - - - ESE 28 - 15 - - 1019.1 -
02/09:00pm - - - - - ESE 32 35 17 19 1019.1 - -
02/08:30pm - - - - - ESE 30 33 16 18 1018.9 - -
02/08:24pm - - - - - SE 30 - 16 - - 1018.8 -

Other Formats:

Comma delimited format used in spreadsheet applications
http://www.bom.gov.au/fwo/IDQ60801/IDQ60801.94290.axf

JavaScript Object Notation format (JSON) in row-major order
http://www.bom.gov.au/fwo/IDQ60801/IDQ60801.94290.json